VSV734 UACC-UAAA
Flight info
| Callsign | VSV734 |
|---|---|
| Flight time | 1h 22m |
| Altitude | 37000 |
| Route | BANOS1A BANOS W333 ETEDA ETEDA1Z |
| Aircraft | B752/M-SDE3FGHIM3RWXY/LB1 |
Departure
| Time | 2026-04-27 17:27 |
|---|---|
| Airport | Nursultan Nazarbayev International Airport (UACC) |
Arrival
| Time | 2026-04-27 18:49 |
|---|---|
| Airport | Almaty International Airport (UAAA) |
| Time | Latitude | Longitude | Altitude | Speed | Heading |
|---|---|---|---|---|---|
| 2026-04-27 16:39 | 51.02482 | 71.45890 | 1177 ft | 0 kts | 45° |
| 2026-04-27 17:21 | 51.02487 | 71.45898 | 1177 ft | 3 kts | 45° |
| 2026-04-27 17:21 | 51.02507 | 71.45956 | 1177 ft | 7 kts | 85° |
| 2026-04-27 17:22 | 51.02477 | 71.46040 | 1177 ft | 10 kts | 132° |
| 2026-04-27 17:22 | 51.02417 | 71.46139 | 1177 ft | 14 kts | 135° |
| 2026-04-27 17:22 | 51.02349 | 71.46239 | 1177 ft | 11 kts | 155° |
| 2026-04-27 17:22 | 51.02275 | 71.46186 | 1177 ft | 13 kts | 223° |
| 2026-04-27 17:23 | 51.02199 | 71.46069 | 1177 ft | 17 kts | 225° |
| 2026-04-27 17:23 | 51.02108 | 71.45925 | 1177 ft | 20 kts | 224° |
| 2026-04-27 17:23 | 51.02002 | 71.45758 | 1177 ft | 22 kts | 224° |
| 2026-04-27 17:23 | 51.01881 | 71.45570 | 1177 ft | 25 kts | 224° |
| 2026-04-27 17:24 | 51.01757 | 71.45374 | 1177 ft | 21 kts | 224° |
| 2026-04-27 17:24 | 51.01651 | 71.45211 | 1177 ft | 21 kts | 223° |
| 2026-04-27 17:24 | 51.01547 | 71.45049 | 1177 ft | 20 kts | 224° |
| 2026-04-27 17:24 | 51.01444 | 71.44888 | 1177 ft | 20 kts | 224° |
| 2026-04-27 17:25 | 51.01349 | 71.44740 | 1177 ft | 16 kts | 222° |
| 2026-04-27 17:25 | 51.01251 | 71.44712 | 1177 ft | 15 kts | 145° |
| 2026-04-27 17:25 | 51.01187 | 71.44817 | 1177 ft | 12 kts | 132° |
| 2026-04-27 17:25 | 51.01175 | 71.44927 | 1177 ft | 8 kts | 58° |
| 2026-04-27 17:26 | 51.01207 | 71.44982 | 1177 ft | 7 kts | 44° |
| 2026-04-27 17:26 | 51.01326 | 71.45166 | 1177 ft | 52 kts | 44° |
| 2026-04-27 17:26 | 51.01769 | 71.45857 | 1178 ft | 127 kts | 44° |
| 2026-04-27 17:26 | 51.02557 | 71.47092 | 1291 ft | 182 kts | 45° |
| 2026-04-27 17:27 | 51.03507 | 71.48613 | 1954 ft | 204 kts | 46° |
| 2026-04-27 17:27 | 51.04243 | 71.50368 | 3152 ft | 195 kts | 68° |
| 2026-04-27 17:27 | 51.04391 | 71.52604 | 3669 ft | 221 kts | 102° |
| 2026-04-27 17:27 | 51.03711 | 71.54910 | 4299 ft | 241 kts | 121° |
| 2026-04-27 17:28 | 51.02792 | 71.57188 | 5155 ft | 252 kts | 121° |
| 2026-04-27 17:28 | 51.01917 | 71.59525 | 6328 ft | 246 kts | 118° |
| 2026-04-27 17:28 | 51.00359 | 71.64110 | 8390 ft | 243 kts | 116° |
| 2026-04-27 17:29 | 50.99579 | 71.66506 | 9278 ft | 246 kts | 117° |
| 2026-04-27 17:29 | 50.98795 | 71.68922 | 10064 ft | 253 kts | 120° |
| 2026-04-27 17:29 | 50.97601 | 71.71072 | 10519 ft | 274 kts | 142° |
| 2026-04-27 17:29 | 50.96026 | 71.72968 | 11024 ft | 293 kts | 142° |
| 2026-04-27 17:30 | 50.94370 | 71.74998 | 11489 ft | 313 kts | 142° |
| 2026-04-27 17:30 | 50.90691 | 71.79460 | 12391 ft | 352 kts | 143° |
| 2026-04-27 17:30 | 50.88726 | 71.81834 | 13189 ft | 358 kts | 143° |
| 2026-04-27 17:31 | 50.86725 | 71.84244 | 13992 ft | 364 kts | 143° |
| 2026-04-27 17:31 | 50.84687 | 71.86697 | 14318 ft | 376 kts | 143° |
| 2026-04-27 17:31 | 50.82603 | 71.89201 | 14297 ft | 369 kts | 143° |
| 2026-04-27 17:31 | 50.80554 | 71.91579 | 14294 ft | 367 kts | 146° |
| 2026-04-27 17:32 | 50.78426 | 71.93815 | 14909 ft | 374 kts | 146° |
| 2026-04-27 17:32 | 50.74089 | 71.98453 | 16567 ft | 382 kts | 146° |
| 2026-04-27 17:32 | 50.71911 | 72.00790 | 17312 ft | 387 kts | 146° |
| 2026-04-27 17:33 | 50.69680 | 72.03184 | 18014 ft | 392 kts | 146° |
| 2026-04-27 17:33 | 50.67419 | 72.05608 | 18727 ft | 397 kts | 146° |
| 2026-04-27 17:33 | 50.65111 | 72.08083 | 19482 ft | 401 kts | 146° |
| 2026-04-27 17:33 | 50.62816 | 72.10541 | 20218 ft | 404 kts | 146° |
| 2026-04-27 17:34 | 50.60496 | 72.13022 | 20928 ft | 408 kts | 146° |
| 2026-04-27 17:34 | 50.58125 | 72.15556 | 21610 ft | 412 kts | 146° |
| 2026-04-27 17:34 | 50.55756 | 72.18084 | 22313 ft | 416 kts | 146° |
| 2026-04-27 17:34 | 50.53367 | 72.20629 | 22949 ft | 420 kts | 146° |
| 2026-04-27 17:35 | 50.50955 | 72.23197 | 23626 ft | 423 kts | 146° |
| 2026-04-27 17:35 | 50.48506 | 72.25800 | 24234 ft | 427 kts | 146° |
| 2026-04-27 17:35 | 50.46035 | 72.28425 | 24901 ft | 429 kts | 146° |
| 2026-04-27 17:35 | 50.43562 | 72.31049 | 25490 ft | 433 kts | 146° |
| 2026-04-27 17:36 | 50.41056 | 72.33702 | 26120 ft | 435 kts | 146° |
| 2026-04-27 17:36 | 50.38550 | 72.36352 | 26706 ft | 438 kts | 146° |
| 2026-04-27 17:36 | 50.36021 | 72.39024 | 27225 ft | 441 kts | 146° |
| 2026-04-27 17:36 | 50.33471 | 72.41715 | 27792 ft | 444 kts | 146° |
| 2026-04-27 17:37 | 50.30914 | 72.44408 | 28309 ft | 447 kts | 146° |
| 2026-04-27 17:37 | 50.28318 | 72.47139 | 28854 ft | 449 kts | 146° |
| 2026-04-27 17:37 | 50.25751 | 72.49836 | 29307 ft | 453 kts | 146° |
| 2026-04-27 17:37 | 50.23130 | 72.52587 | 29812 ft | 455 kts | 146° |
| 2026-04-27 17:38 | 50.20511 | 72.55331 | 30286 ft | 457 kts | 146° |
| 2026-04-27 17:38 | 50.17856 | 72.58110 | 30692 ft | 461 kts | 146° |
| 2026-04-27 17:38 | 50.15170 | 72.60916 | 31098 ft | 463 kts | 146° |
| 2026-04-27 17:38 | 50.12494 | 72.63710 | 31506 ft | 464 kts | 146° |
| 2026-04-27 17:39 | 50.09822 | 72.66496 | 31969 ft | 464 kts | 147° |
| 2026-04-27 17:39 | 50.07115 | 72.69312 | 32382 ft | 464 kts | 147° |
| 2026-04-27 17:39 | 50.04446 | 72.72087 | 32831 ft | 463 kts | 147° |
| 2026-04-27 17:39 | 50.01738 | 72.74899 | 33226 ft | 463 kts | 147° |
| 2026-04-27 17:40 | 49.99035 | 72.77700 | 33611 ft | 463 kts | 148° |
| 2026-04-27 17:40 | 49.96379 | 72.80450 | 33958 ft | 463 kts | 148° |
| 2026-04-27 17:40 | 49.93653 | 72.83268 | 34287 ft | 464 kts | 148° |
| 2026-04-27 17:40 | 49.90991 | 72.86016 | 34640 ft | 463 kts | 148° |
| 2026-04-27 17:41 | 49.88285 | 72.88806 | 34942 ft | 463 kts | 148° |
| 2026-04-27 17:41 | 49.85595 | 72.91575 | 35250 ft | 463 kts | 148° |
| 2026-04-27 17:41 | 49.82876 | 72.94370 | 35587 ft | 462 kts | 148° |
| 2026-04-27 17:42 | 49.77502 | 72.99882 | 35789 ft | 465 kts | 148° |
| 2026-04-27 17:42 | 49.74824 | 73.02625 | 36062 ft | 465 kts | 148° |
| 2026-04-27 17:42 | 49.72121 | 73.05388 | 36330 ft | 466 kts | 148° |
| 2026-04-27 17:42 | 49.69383 | 73.08185 | 36591 ft | 467 kts | 148° |
| 2026-04-27 17:43 | 49.66664 | 73.10958 | 36855 ft | 467 kts | 148° |
| 2026-04-27 17:43 | 49.63966 | 73.13705 | 37096 ft | 468 kts | 148° |
| 2026-04-27 17:43 | 49.61249 | 73.16469 | 37260 ft | 466 kts | 148° |
| 2026-04-27 17:44 | 49.55800 | 73.22000 | 37253 ft | 465 kts | 148° |
| 2026-04-27 17:44 | 49.50397 | 73.27470 | 37261 ft | 465 kts | 148° |
| 2026-04-27 17:45 | 49.45000 | 73.32918 | 37269 ft | 465 kts | 148° |
| 2026-04-27 17:45 | 49.39572 | 73.38382 | 37268 ft | 465 kts | 148° |
| 2026-04-27 17:46 | 49.34182 | 73.43795 | 37268 ft | 465 kts | 148° |
| 2026-04-27 17:46 | 49.28765 | 73.49219 | 37269 ft | 465 kts | 148° |
| 2026-04-27 17:47 | 49.23310 | 73.54668 | 37267 ft | 465 kts | 148° |
| 2026-04-27 17:47 | 49.17887 | 73.60068 | 37265 ft | 465 kts | 148° |
| 2026-04-27 17:48 | 49.12483 | 73.65438 | 37263 ft | 464 kts | 149° |
| 2026-04-27 17:48 | 49.07060 | 73.70812 | 37256 ft | 464 kts | 149° |
| 2026-04-27 17:49 | 49.01662 | 73.76145 | 37258 ft | 464 kts | 149° |
| 2026-04-27 17:49 | 48.95927 | 73.80634 | 37271 ft | 460 kts | 161° |
| 2026-04-27 17:50 | 48.90008 | 73.84194 | 37259 ft | 460 kts | 161° |
| 2026-04-27 17:50 | 48.81044 | 73.89462 | 37257 ft | 459 kts | 162° |
| 2026-04-27 17:51 | 48.75039 | 73.92953 | 37267 ft | 460 kts | 162° |
| 2026-04-27 17:51 | 48.69064 | 73.96414 | 37262 ft | 460 kts | 162° |
| 2026-04-27 17:52 | 48.63121 | 73.99844 | 37254 ft | 459 kts | 162° |
| 2026-04-27 17:52 | 48.58160 | 74.02703 | 37247 ft | 459 kts | 162° |
| 2026-04-27 17:53 | 48.51165 | 74.06721 | 37252 ft | 459 kts | 162° |
| 2026-04-27 17:53 | 48.45207 | 74.10136 | 37240 ft | 459 kts | 162° |
| 2026-04-27 17:54 | 48.39261 | 74.13534 | 37238 ft | 458 kts | 162° |
| 2026-04-27 17:54 | 48.33292 | 74.16936 | 37236 ft | 458 kts | 162° |
| 2026-04-27 17:55 | 48.27331 | 74.20326 | 37229 ft | 458 kts | 162° |
| 2026-04-27 17:55 | 48.21381 | 74.23702 | 37225 ft | 457 kts | 162° |
| 2026-04-27 17:56 | 48.15431 | 74.27069 | 37222 ft | 458 kts | 162° |
| 2026-04-27 17:56 | 48.09498 | 74.30447 | 37221 ft | 456 kts | 162° |
| 2026-04-27 17:57 | 48.03611 | 74.33811 | 37222 ft | 455 kts | 162° |
| 2026-04-27 17:57 | 47.97679 | 74.37191 | 37215 ft | 455 kts | 162° |
| 2026-04-27 17:58 | 47.91743 | 74.40566 | 37225 ft | 456 kts | 162° |
| 2026-04-27 17:58 | 47.85794 | 74.43940 | 37204 ft | 455 kts | 162° |
| 2026-04-27 17:59 | 47.79898 | 74.47276 | 37211 ft | 455 kts | 162° |
| 2026-04-27 17:59 | 47.73988 | 74.50611 | 37204 ft | 454 kts | 162° |
| 2026-04-27 18:00 | 47.68049 | 74.53954 | 37205 ft | 456 kts | 162° |
| 2026-04-27 18:00 | 47.62143 | 74.57272 | 37218 ft | 454 kts | 163° |
| 2026-04-27 18:01 | 47.56225 | 74.60586 | 37191 ft | 453 kts | 163° |
| 2026-04-27 18:01 | 47.50295 | 74.63916 | 37207 ft | 454 kts | 163° |
| 2026-04-27 18:02 | 47.44437 | 74.67212 | 37187 ft | 451 kts | 163° |
| 2026-04-27 18:02 | 47.38555 | 74.70510 | 37187 ft | 451 kts | 164° |
| 2026-04-27 18:03 | 47.32689 | 74.73792 | 37182 ft | 450 kts | 164° |
| 2026-04-27 18:03 | 47.26824 | 74.77064 | 37199 ft | 450 kts | 164° |
| 2026-04-27 18:04 | 47.20987 | 74.80315 | 37193 ft | 450 kts | 164° |
| 2026-04-27 18:04 | 47.15113 | 74.83580 | 37186 ft | 449 kts | 164° |
| 2026-04-27 18:05 | 47.09290 | 74.86807 | 37190 ft | 449 kts | 164° |
| 2026-04-27 18:05 | 47.03479 | 74.90018 | 37184 ft | 448 kts | 165° |
| 2026-04-27 18:06 | 46.97621 | 74.93250 | 37186 ft | 449 kts | 165° |
| 2026-04-27 18:06 | 46.91765 | 74.96474 | 37177 ft | 449 kts | 165° |
| 2026-04-27 18:07 | 46.85927 | 74.99857 | 37169 ft | 451 kts | 161° |
| 2026-04-27 18:07 | 46.80156 | 75.03546 | 37152 ft | 451 kts | 162° |
| 2026-04-27 18:08 | 46.74419 | 75.07189 | 37156 ft | 453 kts | 162° |
| 2026-04-27 18:08 | 46.68639 | 75.10846 | 37144 ft | 452 kts | 162° |
| 2026-04-27 18:09 | 46.62897 | 75.14469 | 37154 ft | 452 kts | 162° |
| 2026-04-27 18:09 | 46.57127 | 75.18102 | 37149 ft | 453 kts | 162° |
| 2026-04-27 18:10 | 46.51372 | 75.21718 | 37150 ft | 450 kts | 162° |
| 2026-04-27 18:10 | 46.45605 | 75.25332 | 37142 ft | 451 kts | 162° |
| 2026-04-27 18:11 | 46.39877 | 75.28912 | 37150 ft | 452 kts | 162° |
| 2026-04-27 18:11 | 46.34074 | 75.32533 | 37143 ft | 452 kts | 162° |
| 2026-04-27 18:12 | 46.28307 | 75.36122 | 37142 ft | 452 kts | 162° |
| 2026-04-27 18:12 | 46.22551 | 75.39696 | 37120 ft | 452 kts | 162° |
| 2026-04-27 18:13 | 46.16796 | 75.43290 | 37130 ft | 452 kts | 162° |
| 2026-04-27 18:13 | 46.11016 | 75.46893 | 37128 ft | 452 kts | 162° |
| 2026-04-27 18:14 | 46.05249 | 75.50481 | 37122 ft | 451 kts | 162° |
| 2026-04-27 18:14 | 45.99481 | 75.54060 | 37117 ft | 451 kts | 162° |
| 2026-04-27 18:15 | 45.93728 | 75.57622 | 37118 ft | 451 kts | 162° |
| 2026-04-27 18:15 | 45.87958 | 75.61187 | 37117 ft | 451 kts | 162° |
| 2026-04-27 18:16 | 45.82194 | 75.64740 | 37117 ft | 451 kts | 162° |
| 2026-04-27 18:16 | 45.76399 | 75.68304 | 37110 ft | 450 kts | 163° |
| 2026-04-27 18:17 | 45.70623 | 75.71848 | 37104 ft | 451 kts | 163° |
| 2026-04-27 18:17 | 45.64875 | 75.75372 | 37103 ft | 450 kts | 163° |
| 2026-04-27 18:18 | 45.59116 | 75.78892 | 37107 ft | 450 kts | 163° |
| 2026-04-27 18:18 | 45.53385 | 75.82387 | 37108 ft | 451 kts | 163° |
| 2026-04-27 18:19 | 45.47614 | 75.85899 | 37097 ft | 450 kts | 163° |
| 2026-04-27 18:19 | 45.41864 | 75.89390 | 37104 ft | 451 kts | 163° |
| 2026-04-27 18:20 | 45.36118 | 75.92872 | 37105 ft | 451 kts | 163° |
| 2026-04-27 18:20 | 45.30357 | 75.96355 | 37102 ft | 450 kts | 163° |
| 2026-04-27 18:21 | 45.24578 | 75.99840 | 37106 ft | 449 kts | 163° |
| 2026-04-27 18:21 | 45.18835 | 76.03297 | 37102 ft | 451 kts | 163° |
| 2026-04-27 18:22 | 45.13021 | 76.06788 | 37108 ft | 451 kts | 163° |
| 2026-04-27 18:22 | 45.07265 | 76.10237 | 37098 ft | 451 kts | 163° |
| 2026-04-27 18:23 | 45.01485 | 76.13693 | 37082 ft | 450 kts | 163° |
| 2026-04-27 18:23 | 44.95739 | 76.17122 | 37082 ft | 450 kts | 163° |
| 2026-04-27 18:24 | 44.89980 | 76.20550 | 37079 ft | 448 kts | 163° |
| 2026-04-27 18:24 | 44.87072 | 76.22275 | 36542 ft | 456 kts | 163° |
| 2026-04-27 18:24 | 44.84191 | 76.23991 | 36414 ft | 442 kts | 163° |
| 2026-04-27 18:25 | 44.81336 | 76.25690 | 36214 ft | 431 kts | 163° |
| 2026-04-27 18:25 | 44.78505 | 76.27364 | 35573 ft | 432 kts | 163° |
| 2026-04-27 18:25 | 44.75693 | 76.29026 | 34983 ft | 431 kts | 163° |
| 2026-04-27 18:25 | 44.72922 | 76.30665 | 34434 ft | 430 kts | 163° |
| 2026-04-27 18:26 | 44.70195 | 76.32275 | 33780 ft | 430 kts | 163° |
| 2026-04-27 18:26 | 44.67453 | 76.33890 | 33064 ft | 430 kts | 163° |
| 2026-04-27 18:26 | 44.64695 | 76.35518 | 32731 ft | 415 kts | 163° |
| 2026-04-27 18:26 | 44.62098 | 76.37056 | 32853 ft | 404 kts | 164° |
| 2026-04-27 18:27 | 44.59500 | 76.38579 | 32396 ft | 404 kts | 164° |
| 2026-04-27 18:27 | 44.56908 | 76.40097 | 31706 ft | 406 kts | 164° |
| 2026-04-27 18:27 | 44.54302 | 76.41625 | 31092 ft | 405 kts | 163° |
| 2026-04-27 18:27 | 44.51728 | 76.43136 | 30404 ft | 406 kts | 163° |
| 2026-04-27 18:28 | 44.49135 | 76.44652 | 29653 ft | 408 kts | 163° |
| 2026-04-27 18:28 | 44.46506 | 76.46190 | 28864 ft | 410 kts | 163° |
| 2026-04-27 18:28 | 44.43869 | 76.47730 | 28077 ft | 412 kts | 163° |
| 2026-04-27 18:28 | 44.41246 | 76.49264 | 27349 ft | 413 kts | 163° |
| 2026-04-27 18:29 | 44.38553 | 76.50581 | 26528 ft | 409 kts | 171° |
| 2026-04-27 18:29 | 44.35749 | 76.51209 | 25669 ft | 404 kts | 181° |
| 2026-04-27 18:29 | 44.32996 | 76.51107 | 24789 ft | 400 kts | 191° |
| 2026-04-27 18:29 | 44.30316 | 76.50291 | 23960 ft | 393 kts | 202° |
| 2026-04-27 18:30 | 44.27850 | 76.49012 | 23408 ft | 364 kts | 205° |
| 2026-04-27 18:30 | 44.25568 | 76.47727 | 22878 ft | 342 kts | 206° |
| 2026-04-27 18:30 | 44.23410 | 76.46439 | 21930 ft | 345 kts | 207° |
| 2026-04-27 18:30 | 44.21215 | 76.45076 | 21250 ft | 346 kts | 207° |
| 2026-04-27 18:31 | 44.19048 | 76.43708 | 20812 ft | 331 kts | 207° |
| 2026-04-27 18:31 | 44.17026 | 76.42419 | 20572 ft | 319 kts | 207° |
| 2026-04-27 18:31 | 44.15017 | 76.41128 | 19933 ft | 324 kts | 207° |
| 2026-04-27 18:31 | 44.12919 | 76.39769 | 18887 ft | 339 kts | 207° |
| 2026-04-27 18:32 | 44.10798 | 76.38399 | 18295 ft | 339 kts | 207° |
| 2026-04-27 18:32 | 44.08639 | 76.37003 | 17569 ft | 343 kts | 207° |
| 2026-04-27 18:32 | 44.06496 | 76.35618 | 16941 ft | 344 kts | 207° |
| 2026-04-27 18:32 | 44.04314 | 76.34207 | 16228 ft | 340 kts | 206° |
| 2026-04-27 18:33 | 44.02182 | 76.32829 | 15425 ft | 346 kts | 206° |
| 2026-04-27 18:33 | 43.99989 | 76.31415 | 14794 ft | 344 kts | 206° |
| 2026-04-27 18:33 | 43.97895 | 76.30064 | 14265 ft | 322 kts | 205° |
| 2026-04-27 18:33 | 43.95930 | 76.28798 | 13812 ft | 309 kts | 205° |
| 2026-04-27 18:34 | 43.93986 | 76.27545 | 13487 ft | 304 kts | 205° |
| 2026-04-27 18:34 | 43.92070 | 76.26311 | 13015 ft | 304 kts | 205° |
| 2026-04-27 18:34 | 43.90162 | 76.25098 | 12605 ft | 302 kts | 202° |
| 2026-04-27 18:34 | 43.88122 | 76.24417 | 12115 ft | 303 kts | 182° |
| 2026-04-27 18:35 | 43.86023 | 76.24681 | 11682 ft | 301 kts | 168° |
| 2026-04-27 18:35 | 43.83978 | 76.25280 | 11252 ft | 301 kts | 168° |
| 2026-04-27 18:35 | 43.81995 | 76.25857 | 11269 ft | 297 kts | 167° |
| 2026-04-27 18:35 | 43.79872 | 76.26496 | 11306 ft | 326 kts | 167° |
| 2026-04-27 18:36 | 43.77628 | 76.27180 | 11301 ft | 326 kts | 167° |
| 2026-04-27 18:36 | 43.75420 | 76.27856 | 11322 ft | 325 kts | 167° |
| 2026-04-27 18:36 | 43.73203 | 76.28539 | 11334 ft | 327 kts | 167° |
| 2026-04-27 18:36 | 43.70981 | 76.29224 | 11318 ft | 329 kts | 167° |
| 2026-04-27 18:37 | 43.68768 | 76.29908 | 11296 ft | 327 kts | 167° |
| 2026-04-27 18:37 | 43.66550 | 76.30592 | 11321 ft | 327 kts | 167° |
| 2026-04-27 18:37 | 43.64308 | 76.31281 | 11324 ft | 326 kts | 166° |
| 2026-04-27 18:37 | 43.62116 | 76.31956 | 11330 ft | 325 kts | 167° |
| 2026-04-27 18:38 | 43.59938 | 76.32762 | 11315 ft | 323 kts | 157° |
| 2026-04-27 18:38 | 43.57875 | 76.34109 | 11028 ft | 331 kts | 153° |
| 2026-04-27 18:38 | 43.55822 | 76.35510 | 10490 ft | 326 kts | 153° |
| 2026-04-27 18:38 | 43.53823 | 76.36878 | 10211 ft | 314 kts | 152° |
| 2026-04-27 18:39 | 43.51936 | 76.38171 | 10030 ft | 293 kts | 152° |
| 2026-04-27 18:39 | 43.50197 | 76.39364 | 9777 ft | 267 kts | 152° |
| 2026-04-27 18:39 | 43.48515 | 76.40522 | 9748 ft | 277 kts | 152° |
| 2026-04-27 18:39 | 43.46778 | 76.41715 | 9588 ft | 283 kts | 152° |
| 2026-04-27 18:40 | 43.45010 | 76.42920 | 9406 ft | 278 kts | 152° |
| 2026-04-27 18:40 | 43.43285 | 76.44114 | 9171 ft | 276 kts | 152° |
| 2026-04-27 18:40 | 43.41583 | 76.45303 | 8962 ft | 274 kts | 152° |
| 2026-04-27 18:40 | 43.40012 | 76.46766 | 8742 ft | 273 kts | 136° |
| 2026-04-27 18:41 | 43.38637 | 76.48544 | 8395 ft | 273 kts | 136° |
| 2026-04-27 18:41 | 43.37284 | 76.50329 | 8093 ft | 269 kts | 136° |
| 2026-04-27 18:41 | 43.35929 | 76.52091 | 7787 ft | 266 kts | 135° |
| 2026-04-27 18:41 | 43.34584 | 76.53828 | 7480 ft | 266 kts | 136° |
| 2026-04-27 18:42 | 43.33235 | 76.55584 | 7191 ft | 266 kts | 135° |
| 2026-04-27 18:42 | 43.32793 | 76.56165 | 7083 ft | 266 kts | 135° |
| 2026-04-27 18:42 | 43.30569 | 76.59071 | 6515 ft | 263 kts | 135° |
| 2026-04-27 18:42 | 43.29265 | 76.60775 | 6264 ft | 259 kts | 135° |
| 2026-04-27 18:43 | 43.27949 | 76.62490 | 6074 ft | 260 kts | 135° |
| 2026-04-27 18:43 | 43.26748 | 76.64307 | 5596 ft | 255 kts | 117° |
| 2026-04-27 18:43 | 43.26179 | 76.66576 | 5378 ft | 246 kts | 104° |
| 2026-04-27 18:43 | 43.25761 | 76.68855 | 5194 ft | 248 kts | 104° |
| 2026-04-27 18:44 | 43.25344 | 76.71172 | 4978 ft | 251 kts | 104° |
| 2026-04-27 18:44 | 43.24942 | 76.73483 | 4629 ft | 252 kts | 103° |
| 2026-04-27 18:44 | 43.24546 | 76.75796 | 4565 ft | 240 kts | 103° |
| 2026-04-27 18:44 | 43.24180 | 76.77962 | 4531 ft | 227 kts | 103° |
| 2026-04-27 18:45 | 43.23941 | 76.80012 | 4510 ft | 214 kts | 88° |
| 2026-04-27 18:45 | 43.24260 | 76.81912 | 4472 ft | 201 kts | 59° |
| 2026-04-27 18:45 | 43.25029 | 76.83465 | 4410 ft | 192 kts | 57° |
| 2026-04-27 18:45 | 43.25742 | 76.84919 | 4353 ft | 180 kts | 57° |
| 2026-04-27 18:46 | 43.26447 | 76.86354 | 4315 ft | 181 kts | 57° |
| 2026-04-27 18:46 | 43.27160 | 76.87787 | 4355 ft | 184 kts | 57° |
| 2026-04-27 18:46 | 43.27885 | 76.89246 | 4314 ft | 186 kts | 57° |
| 2026-04-27 18:46 | 43.28625 | 76.90731 | 4098 ft | 187 kts | 57° |
| 2026-04-27 18:47 | 43.29327 | 76.92137 | 3915 ft | 169 kts | 57° |
| 2026-04-27 18:47 | 43.29955 | 76.93390 | 3696 ft | 152 kts | 57° |
| 2026-04-27 18:47 | 43.30521 | 76.94527 | 3467 ft | 137 kts | 57° |
| 2026-04-27 18:47 | 43.31054 | 76.95596 | 3294 ft | 136 kts | 57° |
| 2026-04-27 18:48 | 43.31608 | 76.96710 | 3143 ft | 145 kts | 57° |
| 2026-04-27 18:48 | 43.32178 | 76.97862 | 2936 ft | 148 kts | 56° |
| 2026-04-27 18:48 | 43.32780 | 76.99036 | 2770 ft | 149 kts | 55° |
| 2026-04-27 18:48 | 43.33365 | 77.00212 | 2541 ft | 147 kts | 56° |
| 2026-04-27 18:49 | 43.33934 | 77.01360 | 2336 ft | 144 kts | 55° |
| 2026-04-27 18:49 | 43.34480 | 77.02462 | 2252 ft | 129 kts | 56° |
| 2026-04-27 18:49 | 43.34844 | 77.03201 | 2252 ft | 65 kts | 56° |
| 2026-04-27 18:49 | 43.35061 | 77.03634 | 2252 ft | 33 kts | 56° |
| 2026-04-27 18:50 | 43.35193 | 77.03860 | 2252 ft | 28 kts | 39° |
| 2026-04-27 18:50 | 43.35302 | 77.03951 | 2252 ft | 14 kts | 27° |
| 2026-04-27 18:50 | 43.35360 | 77.03987 | 2252 ft | 0 kts | 27° |
| 2026-04-27 18:51 | 43.35367 | 77.03992 | 2252 ft | 3 kts | 27° |
| 2026-04-27 18:51 | 43.35400 | 77.04008 | 2252 ft | 7 kts | 3° |
| 2026-04-27 18:51 | 43.35429 | 77.03928 | 2252 ft | 16 kts | 244° |
| 2026-04-27 18:52 | 43.35357 | 77.03781 | 2252 ft | 20 kts | 236° |
| 2026-04-27 18:52 | 43.35271 | 77.03610 | 2252 ft | 23 kts | 236° |
| 2026-04-27 18:52 | 43.35175 | 77.03415 | 2252 ft | 26 kts | 236° |
| 2026-04-27 18:53 | 43.34946 | 77.02953 | 2251 ft | 30 kts | 235° |
| 2026-04-27 18:53 | 43.34845 | 77.02748 | 2251 ft | 21 kts | 236° |
| 2026-04-27 18:53 | 43.34779 | 77.02579 | 2251 ft | 18 kts | 255° |
| 2026-04-27 18:53 | 43.34774 | 77.02442 | 2251 ft | 10 kts | 273° |
| 2026-04-27 18:54 | 43.34779 | 77.02345 | 2251 ft | 9 kts | 275° |
| 2026-04-27 18:54 | 43.34786 | 77.02252 | 2251 ft | 9 kts | 273° |
| 2026-04-27 18:54 | 43.34789 | 77.02130 | 2251 ft | 16 kts | 273° |
| 2026-04-27 18:54 | 43.34797 | 77.01953 | 2251 ft | 19 kts | 274° |
| 2026-04-27 18:55 | 43.34806 | 77.01768 | 2250 ft | 19 kts | 274° |
| 2026-04-27 18:55 | 43.34815 | 77.01589 | 2250 ft | 15 kts | 275° |
| 2026-04-27 18:55 | 43.34810 | 77.01480 | 2250 ft | 11 kts | 252° |
| 2026-04-27 18:55 | 43.34772 | 77.01391 | 2250 ft | 10 kts | 233° |
| 2026-04-27 18:56 | 43.34739 | 77.01312 | 2250 ft | 5 kts | 245° |
| 2026-04-27 18:56 | 43.34733 | 77.01294 | 2250 ft | 0 kts | 246° |